This is the latest recevied weather packets stored in our database for station/object K5KVN. If no packets are shown the sender has not sent any weather packets the latest 10 day(s).
| Time | Temp. | Humidity | Pressure | Rain* | Wind** | Luminosity | Snow |
|---|---|---|---|---|---|---|---|
| 1788618512 | 30° C | 66% | 1017 hPa | 0 mm | - | - | - |
| 1788617910 | 29.44° C | 68% | 1017 hPa | 0 mm | - | - | - |
| 1788617309 | 28.89° C | 69% | 1017 hPa | 0 mm | - | - | - |
| 1788616708 | 28.33° C | 72% | 1016.9 hPa | 0 mm | - | - | - |
| 1788616107 | 27.22° C | 76% | 1016.9 hPa | 0 mm | - | - | - |
| 1788615507 | 26.11° C | 80% | 1016.9 hPa | 0 mm | - | - | - |
| 1788614905 | 25° C | 84% | 1017 hPa | 0 mm | - | - | - |
| 1788614305 | 23.89° C | 89% | 1016.9 hPa | 0 mm | - | - | - |
| 1788613764 | 23.33° C | 90% | 1016.9 hPa | 0 mm | - | - | - |
| 1788613106 | 22.78° C | 90% | 1016.8 hPa | 0 mm | - | - | - |
| 1788612507 | 22.78° C | 90% | 1016.8 hPa | 0 mm | - | - | - |
| 1788611903 | 22.22° C | 90% | 1016.7 hPa | 0 mm | - | - | - |
| 1788611362 | 22.22° C | 90% | 1016.7 hPa | 0 mm | - | - | - |
| 1788610764 | 22.22° C | 90% | 1016.7 hPa | 0 mm | - | - | - |
| 1788610163 | 22.22° C | 90% | 1016.6 hPa | 0 mm | - | - | - |
| 1788609504 | 22.22° C | 89% | 1016.4 hPa | 0 mm | - | - | - |
| 1788608901 | 22.78° C | 89% | 1016.4 hPa | 0 mm | - | - | - |
| 1788608361 | 22.78° C | 89% | 1016.1 hPa | 0 mm | - | - | - |
| 1788607702 | 22.78° C | 88% | 1016.1 hPa | 0 mm | - | - | - |
| 1788607161 | 22.78° C | 88% | 1016.2 hPa | 0 mm | - | - | - |
| 1788606501 | 22.78° C | 88% | 1016.1 hPa | 0 mm | - | - | - |
| 1788605898 | 22.78° C | 88% | 1016.1 hPa | 0 mm | - | - | - |
| 1788605300 | 22.78° C | 88% | 1016.1 hPa | 0 mm | - | - | - |
| 1788604699 | 22.78° C | 87% | 1015.9 hPa | 0 mm | - | - | - |
| 1788604161 | 23.33° C | 86% | 1015.9 hPa | 0 mm | - | - | - |
* Rain latest hour (hover to see other rain measurements)
** Current wind speed in m/s (hover to see current wind gust speed)